createdAt,value
2022-08-03T00:00:15.094Z,2.50
2022-08-03T00:01:15.013Z,2.40
2022-08-03T00:02:15.345Z,2.40
2022-08-03T00:03:15.061Z,2.80
2022-08-03T00:04:14.994Z,2.50
2022-08-03T00:05:14.991Z,2.30
2022-08-03T00:06:15.010Z,2.40
2022-08-03T00:07:14.962Z,2.70
2022-08-03T00:08:14.950Z,2.80
2022-08-03T00:09:14.972Z,2.40
2022-08-03T00:10:14.933Z,2.30
2022-08-03T00:11:14.894Z,2.50
2022-08-03T00:12:15.090Z,2.70
2022-08-03T00:13:14.866Z,2.70
2022-08-03T00:14:14.888Z,2.30
2022-08-03T00:15:15.050Z,2.50
2022-08-03T00:16:14.873Z,2.60
2022-08-03T00:17:14.821Z,3.30
2022-08-03T00:18:14.803Z,2.70
2022-08-03T00:19:14.805Z,2.60
2022-08-03T00:20:14.873Z,2.80
2022-08-03T00:21:14.800Z,2.70
2022-08-03T00:22:15.050Z,2.50
2022-08-03T00:23:15.025Z,2.60
2022-08-03T00:24:14.713Z,2.50
2022-08-03T00:25:14.713Z,2.80
2022-08-03T00:26:14.710Z,2.80
2022-08-03T00:27:16.592Z,3.00
2022-08-03T00:28:14.681Z,2.90
2022-08-03T00:29:14.656Z,3.20
2022-08-03T00:30:14.655Z,3.00
2022-08-03T00:31:14.705Z,3.10
2022-08-03T00:32:14.906Z,3.40
2022-08-03T00:33:14.626Z,3.10
2022-08-03T00:34:14.661Z,3.30
2022-08-03T00:35:36.988Z,3.10
2022-08-03T00:36:14.678Z,3.00
2022-08-03T00:37:14.554Z,3.00
2022-08-03T00:38:14.585Z,3.00
2022-08-03T00:39:14.558Z,3.50
2022-08-03T00:40:14.536Z,3.10
2022-08-03T00:41:15.659Z,3.00
2022-08-03T00:42:14.885Z,2.90
2022-08-03T00:43:14.489Z,3.10
2022-08-03T00:44:14.482Z,2.80
2022-08-03T00:45:15.482Z,2.70
2022-08-03T00:46:17.757Z,3.20
2022-08-03T00:47:14.445Z,3.20
2022-08-03T00:48:29.562Z,3.50
2022-08-03T00:49:14.518Z,3.00
2022-08-03T00:50:14.446Z,2.60
2022-08-03T00:51:14.376Z,2.70
2022-08-03T00:52:14.398Z,3.00
2022-08-03T00:53:14.365Z,3.00
2022-08-03T00:54:14.348Z,2.70
2022-08-03T00:55:14.343Z,2.90
2022-08-03T00:56:14.322Z,2.90
2022-08-03T00:57:14.276Z,3.10
2022-08-03T00:58:14.345Z,2.80
2022-08-03T00:59:14.274Z,3.00
2022-08-03T01:00:14.273Z,3.30
2022-08-03T01:01:14.329Z,2.80
2022-08-03T01:02:14.534Z,2.90
2022-08-03T01:03:14.205Z,2.70
2022-08-03T01:04:14.223Z,3.10
2022-08-03T01:05:14.204Z,2.90
2022-08-03T01:06:14.211Z,2.90
2022-08-03T01:07:14.160Z,2.90
2022-08-03T01:08:14.140Z,2.80
2022-08-03T01:09:14.183Z,2.70
2022-08-03T01:10:14.114Z,2.70
2022-08-03T01:11:14.137Z,3.10
2022-08-03T01:12:14.400Z,2.70
2022-08-03T01:14:03.501Z,2.40
2022-08-03T01:14:23.060Z,2.80
2022-08-03T01:15:14.088Z,3.30
2022-08-03T01:16:14.054Z,3.20
2022-08-03T01:17:14.095Z,2.70
2022-08-03T01:18:14.004Z,2.70
2022-08-03T01:19:14.013Z,2.70
2022-08-03T01:20:14.010Z,2.70
2022-08-03T01:21:13.981Z,2.80
2022-08-03T01:22:14.310Z,2.50
2022-08-03T01:23:13.986Z,2.80
2022-08-03T01:24:13.980Z,3.40
2022-08-03T01:25:13.948Z,2.50
2022-08-03T01:26:13.925Z,3.40
2022-08-03T01:27:13.924Z,3.20
2022-08-03T01:28:13.884Z,3.00
2022-08-03T01:29:13.896Z,3.10
2022-08-03T01:30:13.847Z,3.20
2022-08-03T01:31:13.889Z,3.20
2022-08-03T01:33:00.248Z,3.80
2022-08-03T01:33:13.816Z,3.30
2022-08-03T01:34:14.738Z,3.40
2022-08-03T01:35:13.802Z,2.80
2022-08-03T01:36:13.777Z,3.00
2022-08-03T01:37:13.790Z,2.80
2022-08-03T01:38:13.785Z,3.20
2022-08-03T01:39:13.734Z,2.90
2022-08-03T01:40:13.735Z,2.80
2022-08-03T01:41:13.722Z,3.20
2022-08-03T01:42:14.155Z,3.10
2022-08-03T01:43:14.483Z,2.60
2022-08-03T01:44:30.046Z,3.00
2022-08-03T01:45:13.665Z,2.60
2022-08-03T01:46:13.642Z,2.80
2022-08-03T01:47:13.662Z,2.70
2022-08-03T01:48:13.645Z,2.70
2022-08-03T01:49:13.689Z,2.90
2022-08-03T01:50:13.628Z,2.90
2022-08-03T01:51:13.586Z,2.60
2022-08-03T01:52:13.684Z,2.80
2022-08-03T01:53:13.572Z,2.70
2022-08-03T01:54:13.550Z,3.00
2022-08-03T01:55:13.515Z,3.10
2022-08-03T01:56:13.508Z,3.10
2022-08-03T01:57:13.508Z,2.90
2022-08-03T01:58:13.511Z,3.10
2022-08-03T01:59:13.492Z,2.70
2022-08-03T02:00:13.490Z,3.00
2022-08-03T02:01:13.504Z,3.30
2022-08-03T02:02:28.812Z,2.60
2022-08-03T02:03:13.444Z,2.90
2022-08-03T02:04:13.431Z,2.90
2022-08-03T02:05:13.424Z,3.00
2022-08-03T02:07:02.103Z,2.90
2022-08-03T02:07:13.402Z,2.80
2022-08-03T02:08:13.391Z,3.20
2022-08-03T02:09:13.364Z,2.90
2022-08-03T02:10:13.333Z,3.00
2022-08-03T02:11:13.330Z,3.40
2022-08-03T02:12:13.413Z,3.50
2022-08-03T02:13:13.304Z,3.90
2022-08-03T02:14:13.299Z,2.90
2022-08-03T02:15:13.296Z,3.10
2022-08-03T02:16:13.275Z,3.80
2022-08-03T02:17:13.237Z,3.30
2022-08-03T02:18:13.241Z,3.10
2022-08-03T02:19:13.232Z,3.40
2022-08-03T02:20:13.200Z,3.00
2022-08-03T02:21:13.206Z,2.90
2022-08-03T02:22:13.413Z,3.50
2022-08-03T02:23:13.182Z,3.50
2022-08-03T02:24:13.174Z,3.40
2022-08-03T02:25:13.213Z,3.20
2022-08-03T02:26:13.213Z,3.10
2022-08-03T02:27:13.134Z,2.60
2022-08-03T02:28:13.084Z,2.90
2022-08-03T02:29:13.073Z,2.90
2022-08-03T02:30:13.078Z,3.00
2022-08-03T02:31:13.074Z,2.70
2022-08-03T02:32:13.227Z,2.80
2022-08-03T02:33:13.024Z,2.90
2022-08-03T02:34:13.052Z,2.90
2022-08-03T02:35:13.007Z,3.00
2022-08-03T02:36:13.038Z,2.90
2022-08-03T02:37:13.020Z,2.90
2022-08-03T02:38:12.972Z,2.90
2022-08-03T02:39:12.950Z,3.00
2022-08-03T02:40:12.973Z,2.90
2022-08-03T02:41:12.914Z,2.90
2022-08-03T02:42:13.024Z,3.40
2022-08-03T02:43:12.925Z,3.10
2022-08-03T02:44:12.908Z,3.20
2022-08-03T02:45:12.862Z,3.30
2022-08-03T02:46:12.865Z,3.60
2022-08-03T02:47:12.843Z,3.60
2022-08-03T02:48:12.885Z,3.40
2022-08-03T02:49:41.397Z,3.70
2022-08-03T02:50:12.818Z,3.80
2022-08-03T02:51:12.780Z,3.30
2022-08-03T02:52:15.486Z,3.40
2022-08-03T02:53:12.795Z,3.40
2022-08-03T02:54:12.767Z,3.40
2022-08-03T02:55:12.743Z,3.60
2022-08-03T02:56:12.767Z,3.60
2022-08-03T02:57:12.736Z,3.30
2022-08-03T02:58:12.705Z,3.80
2022-08-03T02:59:12.729Z,3.50
2022-08-03T03:00:12.704Z,4.10
2022-08-03T03:01:12.691Z,3.60
2022-08-03T03:02:12.710Z,3.60
2022-08-03T03:03:12.648Z,3.60
2022-08-03T03:04:12.645Z,3.90
2022-08-03T03:05:52.375Z,3.30
2022-08-03T03:06:12.613Z,3.60
2022-08-03T03:07:12.583Z,3.50
2022-08-03T03:08:17.718Z,4.00
2022-08-03T03:09:12.563Z,3.30
2022-08-03T03:10:12.575Z,3.60
2022-08-03T03:11:12.604Z,3.70
2022-08-03T03:12:12.524Z,3.10
2022-08-03T03:13:12.527Z,3.50
2022-08-03T03:14:12.485Z,3.70
2022-08-03T03:15:12.485Z,3.30
2022-08-03T03:16:12.495Z,3.30
2022-08-03T03:17:12.454Z,3.60
2022-08-03T03:18:12.477Z,3.70
2022-08-03T03:19:12.424Z,3.30
2022-08-03T03:20:12.409Z,3.20
2022-08-03T03:21:12.418Z,2.90
2022-08-03T03:22:12.434Z,3.10
2022-08-03T03:23:12.378Z,3.00
2022-08-03T03:24:12.368Z,3.20
2022-08-03T03:25:12.340Z,3.40
2022-08-03T03:26:12.361Z,3.10
2022-08-03T03:27:12.358Z,3.00
2022-08-03T03:28:12.328Z,3.20
2022-08-03T03:29:12.341Z,3.00
2022-08-03T03:30:12.332Z,3.00
2022-08-03T03:31:12.258Z,3.40
2022-08-03T03:32:12.296Z,3.20
2022-08-03T03:33:12.252Z,3.10
2022-08-03T03:34:12.258Z,3.40
2022-08-03T03:35:12.207Z,3.30
2022-08-03T03:36:12.208Z,3.60
2022-08-03T03:37:12.220Z,3.40
2022-08-03T03:38:12.186Z,3.20
2022-08-03T03:39:15.317Z,3.10
2022-08-03T03:40:12.161Z,3.30
2022-08-03T03:41:12.137Z,3.00
2022-08-03T03:42:12.154Z,3.00
2022-08-03T03:43:12.113Z,3.40
2022-08-03T03:44:12.129Z,3.30
2022-08-03T03:45:12.096Z,3.50
2022-08-03T03:46:12.102Z,3.30
2022-08-03T03:47:12.053Z,3.10
2022-08-03T03:48:12.083Z,3.50
2022-08-03T03:49:12.105Z,3.40
2022-08-03T03:50:12.031Z,3.30
2022-08-03T03:51:12.035Z,3.80
2022-08-03T03:52:12.050Z,3.30
2022-08-03T03:53:12.042Z,3.40
2022-08-03T03:54:12.007Z,3.30
2022-08-03T03:55:11.975Z,3.10
2022-08-03T03:56:11.942Z,3.20
2022-08-03T03:57:12.959Z,3.20
2022-08-03T03:58:11.918Z,3.20
2022-08-03T03:59:11.908Z,3.30
2022-08-03T04:00:11.930Z,3.50
2022-08-03T04:01:11.924Z,3.40
2022-08-03T04:02:11.926Z,3.20
2022-08-03T04:03:11.852Z,3.10
2022-08-03T04:04:11.831Z,3.70
2022-08-03T04:05:11.895Z,3.70
2022-08-03T04:06:11.804Z,3.50
2022-08-03T04:07:11.788Z,3.30
2022-08-03T04:08:11.803Z,3.30
2022-08-03T04:09:11.769Z,3.90
2022-08-03T04:10:14.801Z,3.40
2022-08-03T04:11:11.757Z,3.30
2022-08-03T04:12:11.736Z,3.40
2022-08-03T04:13:11.763Z,3.60
2022-08-03T04:14:11.711Z,3.50
2022-08-03T04:15:11.681Z,3.70
2022-08-03T04:16:11.706Z,3.40
2022-08-03T04:17:11.678Z,3.80
2022-08-03T04:18:11.661Z,3.80
2022-08-03T04:19:11.640Z,3.40
2022-08-03T04:20:11.639Z,3.60
2022-08-03T04:21:11.677Z,3.60
2022-08-03T04:22:11.644Z,3.60
2022-08-03T04:23:14.199Z,3.90
2022-08-03T04:24:11.579Z,3.70
2022-08-03T04:25:11.588Z,3.50
2022-08-03T04:26:11.575Z,3.20
2022-08-03T04:27:11.554Z,3.20
2022-08-03T04:28:29.497Z,3.70
2022-08-03T04:29:11.515Z,3.50
2022-08-03T04:30:11.516Z,3.40
2022-08-03T04:31:11.526Z,3.30
2022-08-03T04:32:11.538Z,3.40
2022-08-03T04:33:11.458Z,3.20
2022-08-03T04:34:11.460Z,3.40
2022-08-03T04:35:11.475Z,3.20
2022-08-03T04:36:11.434Z,3.70
2022-08-03T04:37:11.427Z,3.60
2022-08-03T04:38:11.409Z,3.90
2022-08-03T04:39:11.412Z,3.50
2022-08-03T04:40:11.368Z,3.80
2022-08-03T04:41:11.364Z,3.80
2022-08-03T04:42:11.374Z,4.40
2022-08-03T04:43:11.354Z,3.30
2022-08-03T04:44:11.403Z,3.40
2022-08-03T04:45:11.311Z,3.60
2022-08-03T04:46:11.297Z,3.50
2022-08-03T04:47:11.326Z,3.50
2022-08-03T04:48:11.365Z,3.70
2022-08-03T04:49:11.380Z,3.90
2022-08-03T04:50:13.549Z,3.40
2022-08-03T04:51:11.226Z,3.50
2022-08-03T04:52:11.248Z,3.70
2022-08-03T04:53:11.223Z,3.90
2022-08-03T04:54:11.216Z,3.90
2022-08-03T04:55:11.630Z,3.70
2022-08-03T04:56:11.151Z,3.90
2022-08-03T04:57:11.178Z,3.30
2022-08-03T04:58:11.184Z,3.60
2022-08-03T04:59:11.145Z,4.10
2022-08-03T05:00:11.152Z,3.80
2022-08-03T05:01:11.132Z,3.90
2022-08-03T05:02:11.274Z,3.80
2022-08-03T05:03:23.612Z,3.80
2022-08-03T05:04:11.086Z,3.70
2022-08-03T05:05:11.070Z,3.70
2022-08-03T05:06:11.759Z,3.70
2022-08-03T05:07:11.655Z,4.10
2022-08-03T05:08:11.342Z,4.30
2022-08-03T05:09:10.989Z,4.20
2022-08-03T05:10:14.771Z,4.10
2022-08-03T05:11:10.977Z,3.90
2022-08-03T05:12:10.952Z,4.10
2022-08-03T05:13:10.960Z,4.10
2022-08-03T05:14:10.919Z,3.80
2022-08-03T05:15:10.939Z,3.70
2022-08-03T05:16:10.917Z,3.90
2022-08-03T05:17:10.961Z,3.90
2022-08-03T05:18:14.253Z,4.30
2022-08-03T05:19:10.888Z,4.30
2022-08-03T05:20:10.852Z,4.10
2022-08-03T05:21:10.846Z,4.10
2022-08-03T05:22:10.830Z,4.00
2022-08-03T05:23:10.855Z,4.10
2022-08-03T05:24:10.821Z,3.90
2022-08-03T05:25:17.795Z,4.20
2022-08-03T05:26:10.788Z,4.30
2022-08-03T05:27:10.738Z,4.00
2022-08-03T05:28:10.782Z,4.00
2022-08-03T05:29:11.118Z,3.90
2022-08-03T05:30:31.203Z,4.30
2022-08-03T05:31:10.703Z,4.00
2022-08-03T05:32:10.706Z,4.30
2022-08-03T05:33:10.672Z,3.90
2022-08-03T05:34:10.690Z,4.00
2022-08-03T05:36:00.495Z,4.00
2022-08-03T05:36:10.633Z,4.10
2022-08-03T05:37:10.644Z,4.10
2022-08-03T05:38:10.634Z,4.50
2022-08-03T05:39:10.636Z,4.50
2022-08-03T05:40:10.581Z,4.50
2022-08-03T05:41:20.532Z,4.10
2022-08-03T05:42:10.581Z,3.90
2022-08-03T05:43:10.547Z,4.10
2022-08-03T05:44:10.555Z,3.70
2022-08-03T05:45:10.527Z,4.10
2022-08-03T05:46:12.915Z,3.80
2022-08-03T05:47:10.524Z,4.10
2022-08-03T05:48:10.549Z,3.70
2022-08-03T05:49:11.246Z,3.80
2022-08-03T05:50:10.463Z,3.70
2022-08-03T05:51:10.514Z,3.80
2022-08-03T05:52:15.742Z,3.70
2022-08-03T05:53:10.491Z,4.30
2022-08-03T05:54:10.438Z,3.70
2022-08-03T05:55:10.398Z,3.90
2022-08-03T05:56:13.714Z,3.70
2022-08-03T05:57:10.376Z,3.60
2022-08-03T05:58:10.350Z,4.10
2022-08-03T05:59:35.733Z,3.60
2022-08-03T06:00:10.380Z,3.60
2022-08-03T06:01:10.415Z,3.90
2022-08-03T06:02:10.319Z,3.80
2022-08-03T06:03:10.284Z,3.90
2022-08-03T06:04:10.282Z,4.30
2022-08-03T06:05:10.245Z,4.00
2022-08-03T06:06:10.238Z,3.90
2022-08-03T06:07:10.242Z,3.80
2022-08-03T06:08:10.222Z,3.80
2022-08-03T06:09:10.214Z,3.70
2022-08-03T06:10:36.753Z,3.90
2022-08-03T06:11:10.204Z,4.00
2022-08-03T06:12:14.048Z,3.70
2022-08-03T06:13:10.188Z,4.20
2022-08-03T06:14:10.131Z,3.90
2022-08-03T06:15:11.393Z,3.70
2022-08-03T06:16:10.148Z,3.60
2022-08-03T06:17:10.116Z,3.50
2022-08-03T06:18:10.090Z,3.60
2022-08-03T06:19:10.072Z,3.40
2022-08-03T06:20:10.066Z,3.20
2022-08-03T06:21:15.224Z,3.80
2022-08-03T06:22:10.150Z,3.60
2022-08-03T06:23:16.257Z,3.80
2022-08-03T06:24:10.002Z,3.60
2022-08-03T06:25:13.008Z,3.30
2022-08-03T06:26:10.014Z,3.50
2022-08-03T06:27:09.987Z,3.20
2022-08-03T06:28:19.092Z,3.40
2022-08-03T06:29:10.059Z,3.50
2022-08-03T06:30:09.995Z,3.10
2022-08-03T06:31:10.031Z,3.30
2022-08-03T06:32:09.969Z,4.00
2022-08-03T06:33:09.883Z,3.80
2022-08-03T06:34:35.108Z,3.50
2022-08-03T06:35:09.887Z,3.50
2022-08-03T06:36:09.866Z,3.40
2022-08-03T06:37:09.863Z,3.10
2022-08-03T06:38:09.829Z,3.20
2022-08-03T06:39:09.827Z,3.30
2022-08-03T06:40:09.799Z,3.50
2022-08-03T06:41:09.773Z,3.60
2022-08-03T06:42:09.959Z,3.20
2022-08-03T06:43:12.644Z,3.10
2022-08-03T06:44:10.426Z,3.40
2022-08-03T06:45:09.735Z,2.90
2022-08-03T06:46:09.770Z,3.00
2022-08-03T06:47:09.725Z,3.10
2022-08-03T06:48:09.723Z,3.00
2022-08-03T06:49:09.742Z,2.90
2022-08-03T06:50:17.067Z,2.80
2022-08-03T06:51:09.671Z,3.20
2022-08-03T06:52:09.659Z,3.00
2022-08-03T06:53:09.649Z,3.10
2022-08-03T06:54:09.632Z,3.30
2022-08-03T06:55:09.621Z,2.80
2022-08-03T06:56:09.618Z,3.20
2022-08-03T06:57:09.613Z,3.30
2022-08-03T06:58:09.588Z,3.00
2022-08-03T06:59:09.543Z,2.90
2022-08-03T07:00:13.344Z,3.10
2022-08-03T07:01:09.622Z,3.10
2022-08-03T07:02:09.590Z,3.40
2022-08-03T07:03:09.475Z,3.00
2022-08-03T07:04:09.480Z,3.10
2022-08-03T07:05:09.455Z,3.30
2022-08-03T07:06:09.495Z,3.30
2022-08-03T07:07:09.467Z,2.90
2022-08-03T07:08:09.449Z,3.10
2022-08-03T07:09:09.436Z,2.80
2022-08-03T07:10:09.402Z,3.00
2022-08-03T07:11:09.424Z,3.20
2022-08-03T07:12:09.412Z,3.50
2022-08-03T07:13:09.389Z,3.40
2022-08-03T07:14:09.334Z,3.50
2022-08-03T07:15:09.335Z,3.70
2022-08-03T07:16:09.326Z,3.10
2022-08-03T07:17:11.750Z,3.40
2022-08-03T07:18:09.303Z,3.30
2022-08-03T07:19:09.304Z,3.20
2022-08-03T07:20:09.278Z,3.10
2022-08-03T07:21:09.286Z,3.20
2022-08-03T07:22:09.308Z,2.80
2022-08-03T07:23:09.240Z,3.00
2022-08-03T07:24:09.259Z,3.10
2022-08-03T07:25:09.229Z,3.00
2022-08-03T07:26:09.189Z,2.90
2022-08-03T07:27:09.217Z,3.60
2022-08-03T07:28:09.180Z,3.60
2022-08-03T07:29:11.457Z,3.20
2022-08-03T07:30:09.159Z,3.20
2022-08-03T07:31:09.121Z,2.90
2022-08-03T07:32:09.238Z,3.20
2022-08-03T07:33:09.150Z,3.20
2022-08-03T07:34:09.122Z,3.00
2022-08-03T07:35:09.095Z,3.10
2022-08-03T07:36:09.078Z,2.90
2022-08-03T07:37:09.060Z,2.80
2022-08-03T07:38:09.055Z,2.70
2022-08-03T07:39:15.912Z,2.70
2022-08-03T07:40:09.059Z,3.00
2022-08-03T07:41:09.007Z,2.90
2022-08-03T07:42:08.998Z,2.70
2022-08-03T07:43:08.978Z,2.90
2022-08-03T07:44:08.971Z,2.70
2022-08-03T07:45:08.963Z,2.50
2022-08-03T07:46:08.950Z,2.50
2022-08-03T07:47:09.172Z,3.50
2022-08-03T07:48:12.344Z,2.90
2022-08-03T07:49:08.998Z,2.50
2022-08-03T07:50:08.969Z,2.60
2022-08-03T07:51:08.874Z,2.40
2022-08-03T07:52:08.886Z,3.20
2022-08-03T07:53:08.907Z,2.60
2022-08-03T07:54:08.840Z,2.30
2022-08-03T07:55:08.843Z,2.40
2022-08-03T07:56:11.234Z,2.70
2022-08-03T07:57:08.803Z,2.30
2022-08-03T07:58:08.827Z,2.70
2022-08-03T07:59:08.768Z,2.40
2022-08-03T08:00:09.165Z,2.80
2022-08-03T08:01:08.801Z,2.20
2022-08-03T08:02:08.781Z,3.00
2022-08-03T08:03:08.775Z,2.50
2022-08-03T08:04:08.782Z,2.40
2022-08-03T08:05:08.719Z,3.00
2022-08-03T08:06:08.720Z,2.20
2022-08-03T08:07:08.662Z,2.50
2022-08-03T08:08:08.652Z,2.60
2022-08-03T08:09:08.670Z,2.30
2022-08-03T08:10:08.642Z,2.30
2022-08-03T08:11:08.612Z,2.30
2022-08-03T08:12:15.369Z,2.60
2022-08-03T08:13:08.610Z,2.50
2022-08-03T08:14:08.595Z,2.30
2022-08-03T08:15:08.601Z,2.50
2022-08-03T08:16:08.557Z,2.40
2022-08-03T08:17:08.534Z,2.70
2022-08-03T08:18:08.596Z,2.70
2022-08-03T08:19:08.542Z,2.50
2022-08-03T08:20:08.514Z,2.30
2022-08-03T08:21:08.712Z,2.40
2022-08-03T08:22:08.468Z,2.30
2022-08-03T08:23:10.240Z,2.30
2022-08-03T08:24:13.387Z,2.60
2022-08-03T08:25:08.452Z,2.30
2022-08-03T08:26:08.429Z,2.80
2022-08-03T08:27:08.407Z,2.50
2022-08-03T08:28:30.891Z,2.30
2022-08-03T08:29:08.437Z,2.70
2022-08-03T08:30:11.524Z,2.50
2022-08-03T08:31:08.376Z,2.50
2022-08-03T08:32:08.396Z,2.50
2022-08-03T08:33:08.750Z,2.60
2022-08-03T08:34:08.380Z,2.30
2022-08-03T08:35:09.201Z,3.20
2022-08-03T08:36:12.029Z,2.50
2022-08-03T08:37:08.280Z,2.50
2022-08-03T08:38:08.260Z,2.50
2022-08-03T08:39:08.279Z,2.40
2022-08-03T08:40:08.284Z,2.10
2022-08-03T08:41:09.197Z,2.40
2022-08-03T08:42:08.220Z,2.30
2022-08-03T08:43:08.193Z,2.10
2022-08-03T08:44:08.237Z,2.40
2022-08-03T08:45:08.181Z,2.30
2022-08-03T08:46:08.285Z,2.30
2022-08-03T08:47:08.147Z,3.00
2022-08-03T08:48:08.530Z,2.20
2022-08-03T08:49:08.275Z,2.20
2022-08-03T08:50:27.100Z,2.50
2022-08-03T08:51:08.106Z,2.40
2022-08-03T08:52:25.181Z,2.20
2022-08-03T08:53:09.747Z,2.20
2022-08-03T08:54:08.146Z,2.30
2022-08-03T08:55:08.072Z,2.20
2022-08-03T08:56:08.061Z,2.10
2022-08-03T08:57:21.267Z,2.10
2022-08-03T08:58:08.040Z,2.00
2022-08-03T08:59:08.050Z,2.10
2022-08-03T09:00:07.995Z,2.40
2022-08-03T09:01:08.078Z,2.20
2022-08-03T09:02:07.996Z,1.90
2022-08-03T09:03:07.971Z,2.10
2022-08-03T09:04:07.925Z,2.20
2022-08-03T09:05:07.960Z,2.40
2022-08-03T09:06:07.956Z,2.00
2022-08-03T09:07:19.717Z,1.80
2022-08-03T09:08:07.937Z,2.00
2022-08-03T09:09:07.899Z,2.10
2022-08-03T09:10:12.527Z,2.00
2022-08-03T09:11:07.881Z,1.90
2022-08-03T09:12:35.330Z,2.10
2022-08-03T09:13:07.828Z,1.80
2022-08-03T09:14:07.831Z,2.20
2022-08-03T09:15:16.840Z,2.00
2022-08-03T09:16:07.800Z,2.00
2022-08-03T09:17:07.802Z,1.90
2022-08-03T09:18:07.763Z,1.80
2022-08-03T09:19:07.752Z,2.00
2022-08-03T09:20:07.738Z,2.00
2022-08-03T09:21:29.729Z,1.80
2022-08-03T09:22:07.706Z,1.80
2022-08-03T09:23:24.919Z,1.80
2022-08-03T09:24:16.396Z,2.20
2022-08-03T09:25:24.689Z,1.80
2022-08-03T09:26:09.131Z,1.90
2022-08-03T09:27:07.644Z,2.00
2022-08-03T09:28:07.650Z,1.90
2022-08-03T09:29:13.242Z,2.00
2022-08-03T09:30:07.611Z,2.10
2022-08-03T09:31:07.594Z,2.10
2022-08-03T09:32:07.642Z,1.80
2022-08-03T09:33:08.315Z,1.90
2022-08-03T09:34:07.585Z,2.00
2022-08-03T09:35:09.528Z,2.00
2022-08-03T09:36:07.521Z,1.90
2022-08-03T09:37:07.495Z,1.70
2022-08-03T09:38:12.702Z,1.90
2022-08-03T09:39:07.531Z,1.80
2022-08-03T09:40:08.351Z,1.80
2022-08-03T09:41:07.463Z,2.00
2022-08-03T09:42:07.505Z,1.80
2022-08-03T09:43:07.439Z,2.20
2022-08-03T09:44:07.412Z,2.10
2022-08-03T09:45:07.471Z,2.00
2022-08-03T09:46:07.529Z,2.30
2022-08-03T09:47:07.442Z,2.10
2022-08-03T09:48:07.374Z,1.90
2022-08-03T09:49:07.395Z,1.90
2022-08-03T09:50:07.342Z,2.10
2022-08-03T09:51:14.363Z,1.80
2022-08-03T09:52:38.063Z,1.80
2022-08-03T09:53:07.312Z,1.70
2022-08-03T09:54:15.080Z,1.80
2022-08-03T09:55:07.297Z,1.80
2022-08-03T09:56:34.774Z,1.70
2022-08-03T09:57:07.285Z,1.90
2022-08-03T09:58:07.289Z,1.80
2022-08-03T09:59:07.630Z,1.70
2022-08-03T10:00:08.441Z,2.10
2022-08-03T10:01:07.280Z,1.80
2022-08-03T10:02:07.224Z,1.90
2022-08-03T10:03:07.199Z,1.80
2022-08-03T10:04:07.198Z,1.70
2022-08-03T10:05:07.213Z,1.70
2022-08-03T10:06:07.175Z,1.90
2022-08-03T10:07:07.162Z,1.80
2022-08-03T10:08:07.110Z,1.90
2022-08-03T10:09:07.102Z,1.90
2022-08-03T10:10:30.346Z,1.80
2022-08-03T10:11:07.082Z,1.60
2022-08-03T10:12:07.079Z,1.70
2022-08-03T10:13:07.098Z,1.70
2022-08-03T10:14:07.178Z,1.70
2022-08-03T10:15:07.080Z,1.90
2022-08-03T10:16:28.805Z,2.00
2022-08-03T10:17:06.977Z,1.90
2022-08-03T10:18:07.041Z,1.90
2022-08-03T10:19:07.010Z,1.70
2022-08-03T10:20:06.983Z,1.60
2022-08-03T10:21:07.176Z,1.70
2022-08-03T10:22:06.978Z,1.90
2022-08-03T10:23:06.966Z,1.80
2022-08-03T10:24:06.933Z,1.70
2022-08-03T10:25:06.918Z,1.60
2022-08-03T10:26:06.932Z,1.80
2022-08-03T10:27:06.912Z,1.70
2022-08-03T10:28:06.878Z,1.50
2022-08-03T10:29:06.875Z,1.30
2022-08-03T10:30:06.864Z,1.30
2022-08-03T10:31:06.863Z,1.20
2022-08-03T10:32:06.844Z,1.00
2022-08-03T10:33:15.280Z,1.30
2022-08-03T10:34:06.835Z,1.40
2022-08-03T10:35:19.773Z,1.40
2022-08-03T10:36:06.776Z,1.40
2022-08-03T10:37:06.849Z,1.30
2022-08-03T10:38:06.735Z,1.30
2022-08-03T10:39:15.831Z,1.30
2022-08-03T10:40:06.739Z,1.50
2022-08-03T10:41:06.864Z,1.60
2022-08-03T10:42:14.492Z,1.40
2022-08-03T10:43:06.718Z,1.20
2022-08-03T10:44:06.670Z,1.40
2022-08-03T10:45:06.715Z,1.40
2022-08-03T10:46:06.688Z,1.60
2022-08-03T10:47:06.650Z,1.30
2022-08-03T10:48:06.622Z,1.30
2022-08-03T10:49:06.698Z,1.30
2022-08-03T10:50:06.653Z,1.60
2022-08-03T10:51:06.620Z,1.30
2022-08-03T10:52:13.015Z,1.50
2022-08-03T10:53:06.614Z,1.40
2022-08-03T10:54:06.561Z,1.40
2022-08-03T10:55:07.340Z,1.40
2022-08-03T10:56:06.525Z,1.30
2022-08-03T10:57:14.404Z,1.10
2022-08-03T10:58:11.041Z,1.40
2022-08-03T10:59:06.480Z,1.20
2022-08-03T11:00:06.527Z,1.00
2022-08-03T11:01:06.539Z,1.30
2022-08-03T11:02:06.436Z,1.40
2022-08-03T11:03:06.674Z,1.30
2022-08-03T11:04:11.068Z,1.20
2022-08-03T11:05:06.419Z,1.50
2022-08-03T11:06:06.410Z,1.10
2022-08-03T11:07:06.403Z,1.50
2022-08-03T11:08:06.376Z,1.20
2022-08-03T11:09:06.399Z,1.10
2022-08-03T11:10:10.420Z,1.40
2022-08-03T11:11:06.348Z,1.20
2022-08-03T11:12:06.336Z,1.20
2022-08-03T11:13:06.353Z,1.30
2022-08-03T11:14:06.313Z,1.20
2022-08-03T11:15:06.289Z,1.30
2022-08-03T11:16:07.835Z,1.30
2022-08-03T11:17:06.283Z,1.50
2022-08-03T11:18:06.247Z,1.30
2022-08-03T11:19:06.244Z,1.50
2022-08-03T11:20:06.218Z,1.70
2022-08-03T11:21:06.243Z,1.60
2022-08-03T11:22:06.211Z,1.30
2022-08-03T11:23:06.216Z,1.30
2022-08-03T11:24:06.856Z,1.20
2022-08-03T11:25:06.226Z,1.30
2022-08-03T11:26:06.146Z,1.40
2022-08-03T11:27:06.143Z,1.50
2022-08-03T11:28:06.166Z,1.60
2022-08-03T11:29:06.120Z,1.30
2022-08-03T11:30:06.124Z,1.50
2022-08-03T11:31:06.093Z,1.60
2022-08-03T11:32:06.102Z,1.30
2022-08-03T11:33:06.055Z,1.40
2022-08-03T11:34:06.089Z,1.50
2022-08-03T11:35:06.060Z,1.30
2022-08-03T11:36:06.019Z,1.60
2022-08-03T11:37:06.021Z,1.40
2022-08-03T11:38:06.717Z,1.40
2022-08-03T11:39:05.981Z,1.50
2022-08-03T11:40:06.042Z,1.30
2022-08-03T11:41:06.002Z,1.60
2022-08-03T11:42:05.981Z,1.40
2022-08-03T11:43:05.935Z,1.70
2022-08-03T11:44:05.990Z,1.50
2022-08-03T11:45:06.202Z,1.50
2022-08-03T11:46:05.985Z,1.40
2022-08-03T11:47:05.902Z,1.40
2022-08-03T11:48:05.862Z,1.60
2022-08-03T11:49:09.919Z,1.50
2022-08-03T11:50:05.866Z,1.20
2022-08-03T11:51:05.893Z,1.30
2022-08-03T11:52:05.845Z,1.80
2022-08-03T11:53:05.830Z,1.40
2022-08-03T11:54:05.790Z,1.70
2022-08-03T11:55:05.783Z,1.20
2022-08-03T11:56:05.812Z,1.30
2022-08-03T11:57:05.841Z,1.40
2022-08-03T11:59:01.335Z,1.60
2022-08-03T11:59:25.568Z,1.30
2022-08-03T12:00:05.733Z,1.60
2022-08-03T12:01:05.718Z,1.40
2022-08-03T12:02:05.722Z,1.50
2022-08-03T12:03:05.795Z,1.40
2022-08-03T12:04:05.675Z,1.40
2022-08-03T12:05:05.668Z,1.40
2022-08-03T12:06:05.675Z,1.40
2022-08-03T12:07:05.639Z,1.50
2022-08-03T12:08:06.941Z,1.40
2022-08-03T12:09:05.623Z,1.50
2022-08-03T12:10:05.618Z,1.50
2022-08-03T12:11:05.602Z,1.40
2022-08-03T12:12:05.602Z,1.40
2022-08-03T12:13:05.550Z,1.50
2022-08-03T12:14:48.538Z,1.30
2022-08-03T12:15:05.564Z,1.60
2022-08-03T12:16:05.538Z,1.30
2022-08-03T12:17:05.501Z,1.70
2022-08-03T12:18:05.528Z,1.30
2022-08-03T12:19:05.524Z,1.40
2022-08-03T12:20:05.460Z,1.40
2022-08-03T12:21:05.477Z,1.70
2022-08-03T12:22:05.455Z,1.50
2022-08-03T12:23:05.459Z,1.50
2022-08-03T12:24:05.479Z,1.40
2022-08-03T12:25:05.421Z,1.20
2022-08-03T12:26:05.431Z,1.20
2022-08-03T12:27:05.662Z,1.30
2022-08-03T12:28:05.396Z,1.40
2022-08-03T12:29:05.388Z,1.30
2022-08-03T12:30:05.376Z,1.20
2022-08-03T12:31:05.354Z,1.40
2022-08-03T12:32:05.333Z,1.30
2022-08-03T12:33:05.340Z,1.60
2022-08-03T12:34:05.318Z,1.50
2022-08-03T12:35:05.345Z,1.40
2022-08-03T12:36:05.269Z,1.30
2022-08-03T12:37:05.281Z,1.60
2022-08-03T12:38:05.267Z,1.60
2022-08-03T12:39:05.248Z,1.70
2022-08-03T12:40:09.966Z,1.40
2022-08-03T12:41:05.277Z,1.30
2022-08-03T12:42:05.219Z,1.30
2022-08-03T12:43:05.208Z,1.40
2022-08-03T12:44:05.199Z,1.50
2022-08-03T12:45:05.199Z,1.40
2022-08-03T12:46:05.210Z,1.30
2022-08-03T12:47:05.149Z,1.40
2022-08-03T12:48:05.154Z,1.40
2022-08-03T12:49:05.187Z,1.30
2022-08-03T12:50:05.201Z,1.40
2022-08-03T12:51:05.140Z,1.50
2022-08-03T12:52:07.632Z,1.40
2022-08-03T12:53:05.097Z,1.10
2022-08-03T12:54:05.091Z,1.60
2022-08-03T12:55:05.086Z,1.40
2022-08-03T12:56:06.227Z,1.40
2022-08-03T12:57:05.173Z,1.60
2022-08-03T12:58:05.009Z,1.30
2022-08-03T12:59:05.009Z,1.30
2022-08-03T13:00:05.061Z,1.40
2022-08-03T13:01:09.995Z,1.30
2022-08-03T13:02:09.601Z,1.50
2022-08-03T13:03:38.548Z,1.50
2022-08-03T13:04:04.946Z,1.30
2022-08-03T13:05:04.985Z,1.40
2022-08-03T13:06:04.919Z,1.60
2022-08-03T13:07:04.935Z,1.20
2022-08-03T13:08:04.906Z,1.30
2022-08-03T13:09:04.902Z,1.20
2022-08-03T13:10:08.011Z,1.40
2022-08-03T13:11:04.916Z,1.60
2022-08-03T13:12:04.879Z,1.30
2022-08-03T13:13:04.926Z,1.70
2022-08-03T13:14:04.830Z,1.30
2022-08-03T13:15:04.880Z,1.40
2022-08-03T13:16:05.090Z,1.40
2022-08-03T13:17:04.790Z,1.40
2022-08-03T13:18:04.806Z,1.40